createdAt,value
2019-02-02T00:03:57.653Z,2
2019-02-02T00:09:00.121Z,2
2019-02-02T00:14:02.568Z,2
2019-02-02T00:19:05.137Z,2.1
2019-02-02T00:24:07.494Z,2.1
2019-02-02T00:29:09.944Z,2.2
2019-02-02T00:34:12.414Z,2.2
2019-02-02T00:39:14.865Z,2.2
2019-02-02T00:44:17.351Z,2.2
2019-02-02T00:49:19.796Z,2.3
2019-02-02T00:54:22.265Z,2.3
2019-02-02T00:59:24.706Z,2.3
2019-02-02T01:04:27.157Z,2.4
2019-02-02T01:09:29.621Z,2.4
2019-02-02T01:14:32.118Z,2.4
2019-02-02T01:19:34.544Z,2.4
2019-02-02T01:24:37.098Z,2.4
2019-02-02T01:29:39.452Z,2.5
2019-02-02T01:34:41.906Z,2.5
2019-02-02T01:39:44.359Z,2.6
2019-02-02T01:44:46.821Z,2.6
2019-02-02T01:49:49.270Z,2.6
2019-02-02T01:54:51.749Z,2.5
2019-02-02T01:59:54.201Z,2.6
2019-02-02T02:04:56.654Z,2.6
2019-02-02T02:09:59.128Z,2.6
2019-02-02T02:15:01.739Z,2.6
2019-02-02T02:20:04.041Z,2.5
2019-02-02T02:25:06.502Z,2.5
2019-02-02T02:30:09.023Z,2.5
2019-02-02T02:35:11.400Z,2.5
2019-02-02T02:40:13.868Z,2.5
2019-02-02T02:45:16.376Z,2.5
2019-02-02T02:50:18.784Z,2.6
2019-02-02T02:55:21.245Z,2.6
2019-02-02T03:00:23.727Z,2.6
2019-02-02T03:05:26.166Z,2.6
2019-02-02T03:10:28.613Z,2.6
2019-02-02T03:15:31.079Z,2.5
2019-02-02T03:20:33.568Z,2.6
2019-02-02T03:25:36.013Z,2.6
2019-02-02T03:30:38.514Z,2.6
2019-02-02T03:35:40.967Z,2.6
2019-02-02T03:40:43.379Z,2.6
2019-02-02T03:45:45.891Z,2.6
2019-02-02T03:50:48.296Z,2.5
2019-02-02T03:55:50.760Z,2.5
2019-02-02T04:00:53.327Z,2.5
2019-02-02T04:05:55.684Z,2.6
2019-02-02T04:10:58.146Z,2.5
2019-02-02T04:16:00.616Z,2.6
2019-02-02T04:21:03.092Z,2.6
2019-02-02T04:26:05.526Z,2.6
2019-02-02T04:31:07.997Z,2.6
2019-02-02T04:36:10.461Z,2.5
2019-02-02T04:41:12.941Z,2.5
2019-02-02T04:46:15.388Z,2.5
2019-02-02T04:51:17.849Z,2.5
2019-02-02T04:56:20.335Z,2.5
2019-02-02T05:01:22.770Z,2.5
2019-02-02T05:06:25.226Z,2.4
2019-02-02T05:11:27.721Z,2.4
2019-02-02T05:16:30.178Z,2.4
2019-02-02T05:21:32.601Z,2.3
2019-02-02T05:26:35.138Z,2.3
2019-02-02T05:31:37.671Z,2.3
2019-02-02T05:36:40.004Z,2.3
2019-02-02T05:41:42.445Z,2.3
2019-02-02T05:46:44.952Z,2.2
2019-02-02T05:51:47.430Z,2.2
2019-02-02T05:56:49.859Z,2.2
2019-02-02T06:01:52.291Z,2.2
2019-02-02T06:06:54.821Z,2.2
2019-02-02T06:11:57.217Z,2.1
2019-02-02T06:16:59.727Z,2.1
2019-02-02T06:22:02.140Z,2.2
2019-02-02T06:27:04.699Z,2.2
2019-02-02T06:32:11.651Z,2.1
2019-02-02T06:37:09.531Z,2.1
2019-02-02T06:42:11.989Z,2.1
2019-02-02T06:47:14.458Z,2.1
2019-02-02T06:52:16.939Z,2.1
2019-02-02T06:57:19.427Z,2.2
2019-02-02T07:02:21.887Z,2.2
2019-02-02T07:07:24.319Z,2.1
2019-02-02T07:12:26.773Z,2.1
2019-02-02T07:17:29.265Z,2.2
2019-02-02T07:22:31.692Z,2.2
2019-02-02T07:27:34.214Z,2.2
2019-02-02T07:32:36.627Z,2.2
2019-02-02T07:37:39.098Z,2.2
2019-02-02T07:42:41.536Z,2.3
2019-02-02T07:47:44.021Z,2.3
2019-02-02T07:52:46.487Z,2.4
2019-02-02T07:57:48.941Z,2.4
2019-02-02T08:02:51.429Z,2.5
2019-02-02T08:07:53.851Z,2.6
2019-02-02T08:12:56.321Z,2.6
2019-02-02T08:17:58.804Z,2.7
2019-02-02T08:23:01.310Z,2.8
2019-02-02T08:28:03.728Z,2.8
2019-02-02T08:33:06.192Z,2.8
2019-02-02T08:38:08.647Z,2.9
2019-02-02T08:43:11.146Z,2.9
2019-02-02T08:48:13.562Z,2.9
2019-02-02T08:53:16.023Z,2.9
2019-02-02T08:58:18.567Z,2.9
2019-02-02T09:03:20.947Z,3.1
2019-02-02T09:08:23.438Z,3.2
2019-02-02T09:13:25.841Z,3.3
2019-02-02T09:18:28.345Z,3.4
2019-02-02T09:23:30.770Z,3.5
2019-02-02T09:28:33.228Z,3.5
2019-02-02T09:33:35.700Z,3.7
2019-02-02T09:38:38.162Z,3.8
2019-02-02T09:43:40.598Z,3.9
2019-02-02T09:48:43.042Z,4
2019-02-02T09:53:45.519Z,4.1
2019-02-02T09:58:48.038Z,4.1
2019-02-02T10:03:50.425Z,4.2
2019-02-02T10:08:52.884Z,4.2
2019-02-02T10:13:55.345Z,4.3
2019-02-02T10:18:57.785Z,4.4
2019-02-02T10:24:00.257Z,4.6
2019-02-02T10:29:02.697Z,4.7
2019-02-02T10:34:05.160Z,4.8
2019-02-02T10:39:07.618Z,4.9
2019-02-02T10:44:10.093Z,5
2019-02-02T10:49:12.536Z,5.3
2019-02-02T10:54:15.001Z,5.3
2019-02-02T10:59:17.496Z,5.2
2019-02-02T11:04:19.968Z,5.1
2019-02-02T11:09:22.488Z,4.9
2019-02-02T11:14:25.171Z,4.6
2019-02-02T11:19:27.324Z,4.4
2019-02-02T11:24:29.739Z,4.1
2019-02-02T11:29:32.289Z,4
2019-02-02T11:34:34.650Z,3.9
2019-02-02T11:39:37.103Z,3.8
2019-02-02T11:44:39.586Z,3.6
2019-02-02T11:49:42.102Z,3.5
2019-02-02T11:54:44.479Z,3.4
2019-02-02T11:59:46.927Z,3.3
2019-02-02T12:04:49.385Z,3.3
2019-02-02T12:09:51.976Z,3.5
2019-02-02T12:14:56.763Z,3.6
2019-02-02T12:19:56.765Z,3.8
2019-02-02T12:25:01.647Z,3.9
2019-02-02T12:30:06.979Z,3.8
2019-02-02T12:35:04.787Z,3.6
2019-02-02T12:40:06.601Z,3.6
2019-02-02T12:45:09.058Z,3.7
2019-02-02T12:50:11.512Z,3.7
2019-02-02T12:55:14.005Z,3.9
2019-02-02T13:00:16.426Z,4
2019-02-02T13:05:18.869Z,4.2
2019-02-02T13:10:24.116Z,4.3
2019-02-02T13:15:23.785Z,4.4
2019-02-02T13:20:26.240Z,4.6
2019-02-02T13:25:28.713Z,5
2019-02-02T13:30:31.206Z,5.2
2019-02-02T13:35:33.665Z,5.2
2019-02-02T13:40:36.069Z,5.2
2019-02-02T13:45:38.527Z,5.1
2019-02-02T13:50:41.031Z,5
2019-02-02T13:55:43.498Z,4.9
2019-02-02T14:00:45.907Z,4.8
2019-02-02T14:05:48.369Z,4.7
2019-02-02T14:10:50.856Z,4.7
2019-02-02T14:15:53.286Z,4.6
2019-02-02T14:20:55.749Z,4.4
2019-02-02T14:25:58.200Z,4.3
2019-02-02T14:31:00.692Z,4.2
2019-02-02T14:36:03.115Z,4.1
2019-02-02T14:41:05.568Z,4.1
2019-02-02T14:46:08.020Z,4.3
2019-02-02T14:51:10.514Z,4.5
2019-02-02T14:56:12.962Z,4.6
2019-02-02T15:01:15.428Z,4.6
2019-02-02T15:06:17.852Z,4.7
2019-02-02T15:11:20.306Z,4.8
2019-02-02T15:16:22.788Z,4.7
2019-02-02T15:21:25.222Z,4.6
2019-02-02T15:26:27.684Z,4.4
2019-02-02T15:31:30.146Z,4.2
2019-02-02T15:36:32.612Z,4
2019-02-02T15:41:35.121Z,3.9
2019-02-02T15:46:48.279Z,3.8
2019-02-02T15:51:40.606Z,3.8
2019-02-02T15:56:42.445Z,3.6
2019-02-02T16:01:44.988Z,3.5
2019-02-02T16:06:47.475Z,3.4
2019-02-02T16:11:49.840Z,3.3
2019-02-02T16:16:52.243Z,3.3
2019-02-02T16:21:54.704Z,3.3
2019-02-02T16:26:57.167Z,3.2
2019-02-02T16:31:59.779Z,3.2
2019-02-02T16:37:02.081Z,3.2
2019-02-02T16:42:04.543Z,3.2
2019-02-02T16:47:07.021Z,3.2
2019-02-02T16:52:09.471Z,3.1
2019-02-02T16:57:11.929Z,3.1
2019-02-02T17:02:14.373Z,3.1
2019-02-02T17:07:16.834Z,3.1
2019-02-02T17:12:19.295Z,3.1
2019-02-02T17:17:21.795Z,3.1
2019-02-02T17:22:24.245Z,3
2019-02-02T17:27:26.642Z,3.1
2019-02-02T17:32:29.106Z,3
2019-02-02T17:37:31.584Z,3
2019-02-02T17:42:34.021Z,2.9
2019-02-02T17:47:36.478Z,3
2019-02-02T17:52:38.958Z,3
2019-02-02T17:57:41.425Z,2.9
2019-02-02T18:02:43.882Z,2.8
2019-02-02T18:07:46.359Z,2.7
2019-02-02T18:12:48.779Z,2.5
2019-02-02T18:17:51.269Z,2.4
2019-02-02T18:22:53.755Z,2.3
2019-02-02T18:27:56.160Z,2.3
2019-02-02T18:32:58.611Z,2.3
2019-02-02T18:38:01.096Z,2.3
2019-02-02T18:43:03.512Z,2.2
2019-02-02T18:48:05.988Z,2.3
2019-02-02T18:53:08.477Z,2.4
2019-02-02T18:58:10.897Z,2.5
2019-02-02T19:03:13.396Z,2.6
2019-02-02T19:08:15.812Z,2.6
2019-02-02T19:13:18.270Z,2.6
2019-02-02T19:18:20.726Z,2.5
2019-02-02T19:23:24.965Z,2.5
2019-02-02T19:28:26.589Z,2.4
2019-02-02T19:33:28.116Z,2.5
2019-02-02T19:38:30.589Z,2.5
2019-02-02T19:43:33.021Z,2.6
2019-02-02T19:48:35.512Z,2.7
2019-02-02T19:53:38.098Z,2.7
2019-02-02T19:58:40.411Z,2.7
2019-02-02T20:03:42.882Z,2.8
2019-02-02T20:08:45.333Z,2.8
2019-02-02T20:13:47.887Z,2.8
2019-02-02T20:18:50.252Z,2.9
2019-02-02T20:23:52.700Z,2.9
2019-02-02T20:33:57.609Z,2.9
2019-02-02T20:39:00.063Z,2.9
2019-02-02T20:44:02.552Z,2.9
2019-02-02T20:49:07.640Z,3
2019-02-02T20:54:07.488Z,2.9
2019-02-02T20:59:09.895Z,2.9
2019-02-02T21:04:12.363Z,2.9
2019-02-02T21:09:14.828Z,2.9
2019-02-02T21:14:17.408Z,2.8
2019-02-02T21:19:19.725Z,2.9
2019-02-02T21:24:22.180Z,2.8
2019-02-02T21:29:24.644Z,2.8
2019-02-02T21:34:27.101Z,2.8
2019-02-02T21:39:29.586Z,2.8
2019-02-02T21:44:42.565Z,2.8
2019-02-02T21:49:34.471Z,2.8
2019-02-02T21:54:36.955Z,2.9
2019-02-02T21:59:39.405Z,2.9
2019-02-02T22:04:41.840Z,2.8
2019-02-02T22:09:44.369Z,2.8
2019-02-02T22:14:46.799Z,2.8
2019-02-02T22:19:49.214Z,2.9
2019-02-02T22:24:51.689Z,2.8
2019-02-02T22:29:54.190Z,2.8
2019-02-02T22:34:58.963Z,2.9
2019-02-02T22:39:59.050Z,2.9
2019-02-02T22:45:01.534Z,2.8
2019-02-02T22:50:03.982Z,2.8
2019-02-02T22:55:06.441Z,2.7
2019-02-02T23:00:08.943Z,2.6
2019-02-02T23:05:11.370Z,2.4
2019-02-02T23:10:13.829Z,2.3
2019-02-02T23:15:16.313Z,2.2
2019-02-02T23:20:18.730Z,2.2
2019-02-02T23:25:21.196Z,2.1
2019-02-02T23:30:23.666Z,2.1
2019-02-02T23:35:26.129Z,2
2019-02-02T23:40:28.708Z,1.9
2019-02-02T23:45:31.079Z,1.9
2019-02-02T23:50:33.514Z,1.9
2019-02-02T23:55:36.277Z,1.8
